createdAt,value
2023-04-07T00:01:12.832Z,6.28
2023-04-07T00:04:15.808Z,7.43
2023-04-07T00:07:18.328Z,7.03
2023-04-07T00:10:20.816Z,6.78
2023-04-07T00:13:23.387Z,6.53
2023-04-07T00:16:29.262Z,5.85
2023-04-07T00:19:33.475Z,7.40
2023-04-07T00:22:36.015Z,7.57
2023-04-07T00:25:38.539Z,6.85
2023-04-07T00:28:41.010Z,7.00
2023-04-07T00:31:45.062Z,6.80
2023-04-07T00:34:47.653Z,6.80
2023-04-07T00:37:50.177Z,6.85
2023-04-07T00:40:59.386Z,6.93
2023-04-07T00:44:02.052Z,6.82
2023-04-07T00:47:06.408Z,6.57
2023-04-07T00:50:09.940Z,7.72
2023-04-07T00:56:15.403Z,7.28
2023-04-07T00:59:18.393Z,7.22
2023-04-07T01:02:27.552Z,7.38
2023-04-07T01:05:40.254Z,6.28
2023-04-07T01:08:50.908Z,7.35
2023-04-07T01:12:00.755Z,5.93
2023-04-07T01:18:18.543Z,6.88
2023-04-07T01:21:23.802Z,6.70
2023-04-07T01:24:41.946Z,6.40
2023-04-07T01:28:02.061Z,6.95
2023-04-07T01:31:08.148Z,7.97
2023-04-07T01:34:12.946Z,6.78
2023-04-07T01:37:17.436Z,6.78
2023-04-07T01:40:22.554Z,7.68
2023-04-07T01:43:26.766Z,6.20
2023-04-07T01:46:31.965Z,5.85
2023-04-07T01:49:37.101Z,4.97
2023-04-07T01:52:41.019Z,5.40
2023-04-07T01:55:44.668Z,6.32
2023-04-07T02:01:51.473Z,7.25
2023-04-07T02:04:57.177Z,6.88
2023-04-07T02:08:03.477Z,6.38
2023-04-07T02:11:07.989Z,5.90
2023-04-07T02:14:11.284Z,6.00
2023-04-07T02:17:16.925Z,6.95
2023-04-07T02:20:21.015Z,7.55
2023-04-07T02:23:23.776Z,5.30
2023-04-07T02:26:26.745Z,7.50
2023-04-07T02:29:29.537Z,6.32
2023-04-07T02:32:33.473Z,6.07
2023-04-07T02:35:36.445Z,5.40
2023-04-07T02:38:39.094Z,6.85
2023-04-07T02:41:42.182Z,5.80
2023-04-07T02:44:44.812Z,5.78
2023-04-07T02:47:48.893Z,6.53
2023-04-07T02:50:51.497Z,4.80
2023-04-07T02:53:54.241Z,5.20
2023-04-07T02:56:57.399Z,6.95
2023-04-07T03:00:00.233Z,6.45
2023-04-07T03:03:04.258Z,5.97
2023-04-07T03:06:07.321Z,6.40
2023-04-07T03:09:10.170Z,5.78
2023-04-07T03:12:12.687Z,5.22
2023-04-07T03:15:18.642Z,6.15
2023-04-07T03:18:23.183Z,6.78
2023-04-07T03:21:25.901Z,5.75
2023-04-07T03:24:28.376Z,5.50
2023-04-07T03:27:30.924Z,5.60
2023-04-07T03:30:33.447Z,4.93
2023-04-07T03:33:37.374Z,5.28
2023-04-07T03:36:40.033Z,5.47
2023-04-07T03:39:43.086Z,5.20
2023-04-07T03:42:46.503Z,7.05
2023-04-07T03:45:49.096Z,5.07
2023-04-07T03:48:53.214Z,4.55
2023-04-07T03:51:55.720Z,6.43
2023-04-07T03:54:58.323Z,4.90
2023-04-07T03:58:01.417Z,7.00
2023-04-07T04:01:04.197Z,4.97
2023-04-07T04:04:08.301Z,6.28
2023-04-07T04:07:11.108Z,6.07
2023-04-07T04:10:16.518Z,6.38
2023-04-07T04:13:19.299Z,5.32
2023-04-07T04:16:22.256Z,4.18
2023-04-07T04:19:26.263Z,4.97
2023-04-07T04:22:28.765Z,5.10
2023-04-07T04:25:31.327Z,5.30
2023-04-07T04:28:34.039Z,4.78
2023-04-07T04:31:36.776Z,5.78
2023-04-07T04:34:42.173Z,6.05
2023-04-07T04:37:46.004Z,6.07
2023-04-07T04:40:48.694Z,4.53
2023-04-07T04:43:51.609Z,6.22
2023-04-07T04:46:54.626Z,5.28
2023-04-07T04:50:02.329Z,4.95
2023-04-07T04:53:04.933Z,4.85
2023-04-07T04:56:08.089Z,6.38
2023-04-07T04:59:11.016Z,5.82
2023-04-07T05:02:13.691Z,5.18
2023-04-07T05:05:17.966Z,5.30
2023-04-07T05:08:20.809Z,4.93
2023-04-07T05:11:23.704Z,5.18
2023-04-07T05:14:26.231Z,4.35
2023-04-07T05:17:28.734Z,3.63
2023-04-07T05:20:33.074Z,5.20
2023-04-07T05:23:36.341Z,4.57
2023-04-07T05:26:38.829Z,5.55
2023-04-07T05:29:41.319Z,6.38
2023-04-07T05:32:43.851Z,6.07
2023-04-07T05:35:48.154Z,4.95
2023-04-07T05:38:50.571Z,5.05
2023-04-07T05:41:56.614Z,6.90
2023-04-07T05:44:59.686Z,5.30
2023-04-07T05:48:03.761Z,5.03
2023-04-07T05:51:10.229Z,4.47
2023-04-07T05:54:12.861Z,4.90
2023-04-07T05:57:15.721Z,4.72
2023-04-07T06:00:19.596Z,4.97
2023-04-07T06:03:22.505Z,5.60
2023-04-07T06:06:27.888Z,5.22
2023-04-07T06:09:30.627Z,5.25
2023-04-07T06:12:33.376Z,4.03
2023-04-07T06:15:36.279Z,6.10
2023-04-07T06:18:38.948Z,4.10
2023-04-07T06:21:42.850Z,4.13
2023-04-07T06:24:45.734Z,5.47
2023-04-07T06:27:50.458Z,6.07
2023-04-07T06:30:53.077Z,5.22
2023-04-07T06:33:56.211Z,5.75
2023-04-07T06:37:03.430Z,5.15
2023-04-07T06:40:07.192Z,4.20
2023-04-07T06:43:11.794Z,6.05
2023-04-07T06:46:14.585Z,5.88
2023-04-07T06:49:17.476Z,5.70
2023-04-07T06:52:21.681Z,5.13
2023-04-07T06:55:24.376Z,5.63
2023-04-07T06:58:36.061Z,4.30
2023-04-07T07:01:47.844Z,5.18
2023-04-07T07:04:50.447Z,7.30
2023-04-07T07:07:54.709Z,5.72
2023-04-07T07:10:57.732Z,6.18
2023-04-07T07:14:00.450Z,5.15
2023-04-07T07:17:03.511Z,4.28
2023-04-07T07:20:07.608Z,6.95
2023-04-07T07:23:11.803Z,5.45
2023-04-07T07:26:14.322Z,3.78
2023-04-07T07:29:17.060Z,6.75
2023-04-07T07:32:20.091Z,5.45
2023-04-07T07:35:25.132Z,7.00
2023-04-07T07:38:29.107Z,6.43
2023-04-07T07:41:31.533Z,4.75
2023-04-07T07:44:33.989Z,5.45
2023-04-07T07:47:37.933Z,6.97
2023-04-07T07:50:40.576Z,6.60
2023-04-07T07:53:44.905Z,6.15
2023-04-07T07:56:47.670Z,5.35
2023-04-07T07:59:50.202Z,5.88
2023-04-07T08:02:52.955Z,6.70
2023-04-07T08:05:56.020Z,6.65
2023-04-07T08:09:01.480Z,5.13
2023-04-07T08:12:04.446Z,6.45
2023-04-07T08:15:09.691Z,5.28
2023-04-07T08:18:12.172Z,5.03
2023-04-07T08:21:14.697Z,5.47
2023-04-07T08:24:18.937Z,4.78
2023-04-07T08:27:22.025Z,5.15
2023-04-07T08:30:24.563Z,5.43
2023-04-07T08:33:27.532Z,4.47
2023-04-07T08:36:30.309Z,5.45
2023-04-07T08:39:34.333Z,4.68
2023-04-07T08:42:42.123Z,4.95
2023-04-07T08:45:48.816Z,6.40
2023-04-07T08:48:53.324Z,6.53
2023-04-07T08:51:57.620Z,5.80
2023-04-07T08:55:03.335Z,6.30
2023-04-07T08:58:06.362Z,7.15
2023-04-07T09:01:10.471Z,6.95
2023-04-07T09:04:13.589Z,8.48
2023-04-07T09:07:16.283Z,6.50
2023-04-07T09:10:20.311Z,8.68
2023-04-07T09:13:22.931Z,5.53
2023-04-07T09:16:26.691Z,8.95
2023-04-07T09:19:30.797Z,6.78
2023-04-07T09:22:38.676Z,7.60
2023-04-07T09:25:42.851Z,6.00
2023-04-07T09:28:46.674Z,7.07
2023-04-07T09:31:52.067Z,8.15
2023-04-07T09:35:00.430Z,6.45
2023-04-07T09:38:04.770Z,7.32
2023-04-07T09:41:11.144Z,6.63
2023-04-07T09:44:13.922Z,7.30
2023-04-07T09:47:16.592Z,7.30
2023-04-07T09:50:32.524Z,6.45
2023-04-07T09:53:47.695Z,7.22
2023-04-07T09:56:51.817Z,6.15
2023-04-07T09:59:56.130Z,6.60
2023-04-07T10:02:59.074Z,7.80
2023-04-07T10:06:03.011Z,6.85
2023-04-07T10:09:05.680Z,6.35
2023-04-07T10:12:09.700Z,6.65
2023-04-07T10:15:14.092Z,8.18
2023-04-07T10:18:18.933Z,7.40
2023-04-07T10:21:21.610Z,6.38
2023-04-07T10:24:37.749Z,6.75
2023-04-07T10:30:53.760Z,6.78
2023-04-07T10:33:57.025Z,6.47
2023-04-07T10:37:14.085Z,6.15
2023-04-07T10:40:29.897Z,6.03
2023-04-07T10:43:45.016Z,7.38
2023-04-07T10:47:06.769Z,5.60
2023-04-07T10:50:20.743Z,6.90
2023-04-07T10:53:24.142Z,6.65
2023-04-07T10:56:26.811Z,5.95
2023-04-07T10:59:30.850Z,6.40
2023-04-07T11:02:35.274Z,6.70
2023-04-07T11:05:38.794Z,7.05
2023-04-07T11:08:43.196Z,5.97
2023-04-07T11:11:47.954Z,8.07
2023-04-07T11:14:51.784Z,8.20
2023-04-07T11:18:15.415Z,8.98
2023-04-07T11:21:20.192Z,8.48
2023-04-07T11:24:37.796Z,7.93
2023-04-07T11:27:40.524Z,6.97
2023-04-07T11:30:49.855Z,7.45
2023-04-07T11:33:54.652Z,8.20
2023-04-07T11:36:59.936Z,6.80
2023-04-07T11:40:02.569Z,7.47
2023-04-07T11:43:18.693Z,6.32
2023-04-07T11:49:28.222Z,6.72
2023-04-07T11:52:41.209Z,7.22
2023-04-07T11:55:43.872Z,7.18
2023-04-07T11:58:50.773Z,7.32
2023-04-07T12:01:57.534Z,7.03
2023-04-07T12:05:00.731Z,6.50
2023-04-07T12:08:03.693Z,6.57
2023-04-07T12:11:08.053Z,7.93
2023-04-07T12:14:11.156Z,5.72
2023-04-07T12:21:36.541Z,7.43
2023-04-07T12:25:01.917Z,7.05
2023-04-07T12:28:52.953Z,6.30
2023-04-07T12:33:02.815Z,6.95
2023-04-07T12:40:58.449Z,7.25
2023-04-07T12:44:16.783Z,6.68
2023-04-07T12:47:23.979Z,6.40
2023-04-07T12:50:29.282Z,6.80
2023-04-07T12:53:34.873Z,7.15
2023-04-07T12:56:41.225Z,6.50
2023-04-07T12:59:48.385Z,6.70
2023-04-07T13:02:51.959Z,6.15
2023-04-07T13:09:13.861Z,8.57
2023-04-07T13:12:17.814Z,6.97
2023-04-07T13:15:20.539Z,6.95
2023-04-07T13:18:23.398Z,7.13
2023-04-07T13:24:33.034Z,5.88
2023-04-07T13:27:35.882Z,5.88
2023-04-07T13:30:38.832Z,7.50
2023-04-07T13:33:41.473Z,7.55
2023-04-07T13:36:44.032Z,6.30
2023-04-07T13:39:47.948Z,5.28
2023-04-07T13:42:50.651Z,6.38
2023-04-07T13:45:53.454Z,7.82
2023-04-07T13:48:57.757Z,4.60
2023-04-07T13:52:00.537Z,6.40
2023-04-07T13:55:05.699Z,6.65
2023-04-07T13:58:08.245Z,5.80
2023-04-07T14:01:11.370Z,6.70
2023-04-07T14:04:14.333Z,5.78
2023-04-07T14:07:17.500Z,6.05
2023-04-07T14:10:21.720Z,7.05
2023-04-07T14:13:24.267Z,6.15
2023-04-07T14:16:27.715Z,7.05
2023-04-07T14:19:30.736Z,6.40
2023-04-07T14:22:33.248Z,8.20
2023-04-07T14:25:37.422Z,6.18
2023-04-07T14:28:40.653Z,6.25
2023-04-07T14:34:48.151Z,6.00
2023-04-07T14:37:52.426Z,7.90
2023-04-07T14:40:56.692Z,7.25
2023-04-07T14:43:59.634Z,7.97
2023-04-07T14:47:02.364Z,5.97
2023-04-07T14:50:05.328Z,6.43
2023-04-07T14:53:08.076Z,5.90
2023-04-07T14:56:12.286Z,6.38
2023-04-07T14:59:14.876Z,6.22
2023-04-07T15:02:17.644Z,5.10
2023-04-07T15:05:20.930Z,4.93
2023-04-07T15:08:23.573Z,7.78
2023-04-07T15:11:27.767Z,7.32
2023-04-07T15:14:30.700Z,8.23
2023-04-07T15:17:40.605Z,6.03
2023-04-07T15:20:45.482Z,6.28
2023-04-07T15:23:48.647Z,7.57
2023-04-07T15:26:52.839Z,7.78
2023-04-07T15:29:55.329Z,7.35
2023-04-07T15:32:59.063Z,6.60
2023-04-07T15:36:01.637Z,6.30
2023-04-07T15:39:05.677Z,6.38
2023-04-07T15:42:12.536Z,7.38
2023-04-07T15:45:15.129Z,5.75
2023-04-07T15:48:18.833Z,6.25
2023-04-07T15:51:21.526Z,7.25
2023-04-07T15:54:24.180Z,5.97
2023-04-07T15:57:28.110Z,7.18
2023-04-07T16:00:33.492Z,6.53
2023-04-07T16:03:36.571Z,8.07
2023-04-07T16:06:39.116Z,6.15
2023-04-07T16:09:41.556Z,9.25
2023-04-07T16:12:45.707Z,11.38
2023-04-07T16:15:48.285Z,11.93
2023-04-07T16:18:51.971Z,12.48
2023-04-07T16:21:55.059Z,10.90
2023-04-07T16:24:57.641Z,13.23
2023-04-07T16:28:01.778Z,9.57
2023-04-07T16:31:08.577Z,10.75
2023-04-07T16:34:11.713Z,10.40
2023-04-07T16:37:14.341Z,7.15
2023-04-07T16:40:17.973Z,7.32
2023-04-07T16:43:21.913Z,7.63
2023-04-07T16:46:26.008Z,8.60
2023-04-07T16:49:28.666Z,7.30
2023-04-07T16:52:31.667Z,10.90
2023-04-07T16:55:36.769Z,7.47
2023-04-07T16:58:40.681Z,6.97
2023-04-07T17:01:44.842Z,8.15
2023-04-07T17:04:47.632Z,7.70
2023-04-07T17:07:50.311Z,7.57
2023-04-07T17:10:52.890Z,6.57
2023-04-07T17:13:57.779Z,8.02
2023-04-07T17:17:00.547Z,6.95
2023-04-07T17:20:03.634Z,7.03
2023-04-07T17:23:06.522Z,9.00
2023-04-07T17:26:09.250Z,8.35
2023-04-07T17:29:13.102Z,8.27
2023-04-07T17:32:15.893Z,8.77
2023-04-07T17:35:18.645Z,9.32
2023-04-07T17:38:21.157Z,7.18
2023-04-07T17:41:23.664Z,7.88
2023-04-07T17:44:27.704Z,7.82
2023-04-07T17:47:30.469Z,7.65
2023-04-07T17:50:32.958Z,8.25
2023-04-07T17:53:35.532Z,6.95
2023-04-07T17:56:38.786Z,8.55
2023-04-07T17:59:42.793Z,8.50
2023-04-07T18:05:49.196Z,6.57
2023-04-07T18:11:54.461Z,6.65
2023-04-07T18:14:58.552Z,9.85
2023-04-07T18:18:02.361Z,8.77
2023-04-07T18:21:05.955Z,8.43
2023-04-07T18:27:11.291Z,6.97
2023-04-07T18:30:15.146Z,8.90
2023-04-07T18:33:17.962Z,6.97
2023-04-07T18:36:22.156Z,7.88
2023-04-07T18:39:27.854Z,8.02
2023-04-07T18:42:30.408Z,7.22
2023-04-07T18:45:37.154Z,6.40
2023-04-07T18:48:40.943Z,8.35
2023-04-07T18:51:44.709Z,8.13
2023-04-07T18:54:47.148Z,7.22
2023-04-07T18:57:49.643Z,7.70
2023-04-07T19:00:54.700Z,7.90
2023-04-07T19:03:57.887Z,7.50
2023-04-07T19:07:02.180Z,7.70
2023-04-07T19:10:05.696Z,7.38
2023-04-07T19:13:08.361Z,8.05
2023-04-07T19:16:13.807Z,7.38
2023-04-07T19:19:17.455Z,8.50
2023-04-07T19:22:20.298Z,8.38
2023-04-07T19:25:24.059Z,7.78
2023-04-07T19:28:26.623Z,8.40
2023-04-07T19:31:30.994Z,7.28
2023-04-07T19:34:34.315Z,7.82
2023-04-07T19:37:37.850Z,7.68
2023-04-07T19:46:48.775Z,9.13
2023-04-07T19:49:51.270Z,8.07
2023-04-07T19:52:54.099Z,7.97
2023-04-07T19:55:57.066Z,9.95
2023-04-07T19:58:59.706Z,7.40
2023-04-07T20:02:03.553Z,8.02
2023-04-07T20:05:06.796Z,8.48
2023-04-07T20:08:10.500Z,8.32
2023-04-07T20:11:13.410Z,7.35
2023-04-07T20:14:16.076Z,8.73
2023-04-07T20:17:21.808Z,7.47
2023-04-07T20:20:24.619Z,7.45
2023-04-07T20:23:27.189Z,7.57
2023-04-07T20:26:29.675Z,8.82
2023-04-07T20:29:32.134Z,8.50
2023-04-07T20:32:36.877Z,9.30
2023-04-07T20:35:40.484Z,8.65
2023-04-07T20:41:47.017Z,9.05
2023-04-07T20:44:49.995Z,8.40
2023-04-07T20:47:54.415Z,8.70
2023-04-07T20:50:57.591Z,9.80
2023-04-07T20:54:00.101Z,8.68
2023-04-07T20:57:02.927Z,8.50
2023-04-07T21:00:06.592Z,8.45
2023-04-07T21:03:10.869Z,8.43
2023-04-07T21:06:13.647Z,8.02
2023-04-07T21:09:17.764Z,7.32
2023-04-07T21:12:20.560Z,8.73
2023-04-07T21:15:23.184Z,8.95
2023-04-07T21:18:27.517Z,7.80
2023-04-07T21:21:30.068Z,8.20
2023-04-07T21:24:32.823Z,8.70
2023-04-07T21:27:36.050Z,7.45
2023-04-07T21:30:41.427Z,7.72
2023-04-07T21:33:46.488Z,7.65
2023-04-07T21:36:49.183Z,7.22
2023-04-07T21:39:54.101Z,8.45
2023-04-07T21:42:57.532Z,8.82
2023-04-07T21:46:00.108Z,7.47
2023-04-07T21:49:03.953Z,7.95
2023-04-07T21:52:07.632Z,7.45
2023-04-07T21:55:11.809Z,7.10
2023-04-07T21:58:14.314Z,7.65
2023-04-07T22:01:18.367Z,7.68
2023-04-07T22:04:23.060Z,8.88
2023-04-07T22:07:26.201Z,8.02
2023-04-07T22:10:28.859Z,7.50
2023-04-07T22:13:31.578Z,8.13
2023-04-07T22:16:34.281Z,8.43
2023-04-07T22:19:38.241Z,6.90
2023-04-07T22:22:41.175Z,8.68
2023-04-07T22:25:43.956Z,7.22
2023-04-07T22:28:46.583Z,8.13
2023-04-07T22:31:50.596Z,6.68
2023-04-07T22:34:54.702Z,7.80
2023-04-07T22:37:57.262Z,7.82
2023-04-07T22:40:59.902Z,6.53
2023-04-07T22:44:03.747Z,7.22
2023-04-07T22:47:06.305Z,7.93
2023-04-07T22:50:11.850Z,7.20
2023-04-07T22:53:14.686Z,6.90
2023-04-07T22:56:17.356Z,6.25
2023-04-07T22:59:20.363Z,7.75
2023-04-07T23:02:23.226Z,6.95
2023-04-07T23:05:27.967Z,6.95
2023-04-07T23:08:31.472Z,8.23
2023-04-07T23:11:34.106Z,7.25
2023-04-07T23:14:36.722Z,8.00
2023-04-07T23:17:39.585Z,6.82
2023-04-07T23:20:51.045Z,7.35
2023-04-07T23:23:54.284Z,7.32
2023-04-07T23:26:58.445Z,7.25
2023-04-07T23:30:01.616Z,6.85
2023-04-07T23:33:04.630Z,6.30
2023-04-07T23:36:09.323Z,6.63
2023-04-07T23:39:11.785Z,6.85
2023-04-07T23:42:16.221Z,7.18
2023-04-07T23:45:20.647Z,6.95
2023-04-07T23:48:24.358Z,6.95
2023-04-07T23:51:28.667Z,7.07
2023-04-07T23:54:31.175Z,7.40
2023-04-07T23:57:33.741Z,6.72
